createdAt,value
2022-11-17T00:01:56.069Z,5.05
2022-11-17T00:04:28.767Z,5.11
2022-11-17T00:07:00.820Z,5.11
2022-11-17T00:09:35.172Z,5.12
2022-11-17T00:12:22.661Z,4.88
2022-11-17T00:14:55.435Z,5.11
2022-11-17T00:17:28.933Z,5.13
2022-11-17T00:20:14.099Z,5.09
2022-11-17T00:22:47.422Z,4.87
2022-11-17T00:25:23.165Z,4.88
2022-11-17T00:27:56.446Z,4.93
2022-11-17T00:30:43.787Z,4.78
2022-11-17T00:33:29.475Z,4.82
2022-11-17T00:36:02.886Z,4.66
2022-11-17T00:38:36.326Z,4.88
2022-11-17T00:41:12.134Z,4.88
2022-11-17T00:43:45.504Z,4.91
2022-11-17T00:46:18.335Z,4.76
2022-11-17T00:48:51.957Z,4.41
2022-11-17T00:51:24.702Z,4.55
2022-11-17T00:53:56.739Z,4.91
2022-11-17T00:56:31.173Z,4.70
2022-11-17T00:59:03.345Z,4.85
2022-11-17T01:01:35.471Z,4.91
2022-11-17T01:04:08.382Z,4.85
2022-11-17T01:06:43.335Z,4.41
2022-11-17T01:09:17.610Z,4.49
2022-11-17T01:11:53.401Z,4.48
2022-11-17T01:14:32.833Z,4.33
2022-11-17T01:17:04.426Z,4.42
2022-11-17T01:19:36.252Z,4.34
2022-11-17T01:22:07.749Z,4.56
2022-11-17T01:24:39.822Z,4.89
2022-11-17T01:27:14.167Z,4.86
2022-11-17T01:29:46.321Z,4.64
2022-11-17T01:32:17.821Z,4.72
2022-11-17T01:34:50.603Z,4.40
2022-11-17T01:37:22.711Z,4.67
2022-11-17T01:39:54.646Z,4.43
2022-11-17T01:42:30.426Z,4.53
2022-11-17T01:45:08.967Z,4.77
2022-11-17T01:47:46.107Z,4.49
2022-11-17T01:50:31.938Z,4.29
2022-11-17T01:53:08.034Z,4.30
2022-11-17T01:55:45.378Z,4.39
2022-11-17T01:58:24.429Z,4.30
2022-11-17T03:35:47.791Z,4.55
2022-11-17T03:38:28.143Z,4.19
2022-11-17T03:41:04.065Z,4.26
2022-11-17T03:43:36.656Z,4.26
2022-11-17T03:46:13.472Z,4.22
2022-11-17T03:52:01.731Z,4.57
2022-11-17T03:54:34.201Z,4.38
2022-11-17T03:57:11.320Z,4.31
2022-11-17T03:59:49.342Z,4.10
2022-11-17T04:02:22.201Z,3.94
2022-11-17T04:05:06.652Z,4.33
2022-11-17T04:07:43.257Z,4.24
2022-11-17T04:11:05.361Z,4.23
2022-11-17T04:14:42.581Z,4.47
2022-11-17T04:17:30.662Z,4.03
2022-11-17T04:20:02.922Z,4.37
2022-11-17T04:22:34.849Z,4.32
2022-11-17T04:25:22.593Z,4.38
2022-11-17T04:28:25.275Z,4.45
2022-11-17T04:30:57.652Z,4.38
2022-11-17T04:33:29.424Z,4.01
2022-11-17T04:36:01.741Z,3.91
2022-11-17T04:38:33.819Z,4.36
2022-11-17T04:41:23.500Z,4.51
2022-11-17T04:43:55.690Z,4.50
2022-11-17T04:46:29.134Z,4.46
2022-11-17T04:49:02.341Z,4.28
2022-11-17T04:51:36.051Z,4.55
2022-11-17T04:54:09.891Z,4.57
2022-11-17T04:56:44.843Z,4.63
2022-11-17T04:59:18.391Z,4.52
2022-11-17T05:01:51.087Z,4.55
2022-11-17T05:04:36.963Z,4.20
2022-11-17T05:07:10.007Z,4.55
2022-11-17T05:09:42.314Z,4.33
2022-11-17T05:12:31.753Z,4.58
2022-11-17T05:15:03.755Z,4.47
2022-11-17T05:17:33.302Z,4.67
2022-11-17T05:20:04.972Z,4.47
2022-11-17T05:22:49.211Z,4.31
2022-11-17T05:25:30.128Z,4.51
2022-11-17T05:28:04.953Z,4.57
2022-11-17T05:31:01.552Z,4.13
2022-11-17T05:33:37.756Z,4.49
2022-11-17T05:39:06.495Z,4.99
2022-11-17T05:41:38.602Z,4.41
2022-11-17T05:44:13.305Z,4.72
2022-11-17T05:47:11.791Z,4.64
2022-11-17T05:49:43.859Z,4.38
2022-11-17T05:52:15.512Z,4.51
2022-11-17T05:54:47.582Z,4.47
2022-11-17T05:57:27.543Z,4.71
2022-11-17T06:00:06.072Z,4.87
2022-11-17T06:02:42.844Z,4.51
2022-11-17T06:05:20.215Z,4.51
2022-11-17T06:07:55.038Z,4.93
2022-11-17T06:10:26.962Z,4.78
2022-11-17T06:12:59.258Z,4.35
2022-11-17T06:15:34.795Z,4.59
2022-11-17T06:18:13.074Z,4.66
2022-11-17T06:20:48.838Z,4.83
2022-11-17T06:23:23.494Z,4.84
2022-11-17T06:25:55.715Z,4.84
2022-11-17T06:28:30.934Z,4.80
2022-11-17T06:31:05.832Z,4.77
2022-11-17T06:33:40.233Z,5.00
2022-11-17T06:36:12.881Z,5.21
2022-11-17T06:38:45.214Z,4.95
2022-11-17T06:41:17.156Z,5.01
2022-11-17T06:43:49.654Z,4.83
2022-11-17T06:46:24.764Z,4.66
2022-11-17T06:48:58.235Z,4.64
2022-11-17T06:51:30.234Z,4.61
2022-11-17T06:54:04.093Z,4.50
2022-11-17T06:56:37.473Z,5.00
2022-11-17T06:59:12.455Z,4.80
2022-11-17T07:01:47.058Z,5.03
2022-11-17T07:04:19.940Z,4.94
2022-11-17T07:06:51.827Z,4.76
2022-11-17T07:09:27.849Z,4.87
2022-11-17T07:12:00.056Z,5.04
2022-11-17T07:14:32.319Z,4.78
2022-11-17T07:17:06.862Z,5.10
2022-11-17T07:19:39.162Z,4.65
2022-11-17T07:22:11.180Z,4.96
2022-11-17T07:24:44.080Z,5.12
2022-11-17T07:27:16.139Z,4.93
2022-11-17T07:29:48.541Z,5.04
2022-11-17T07:32:23.038Z,5.08
2022-11-17T07:34:55.227Z,5.04
2022-11-17T07:37:45.738Z,5.04
2022-11-17T07:40:19.082Z,4.94
2022-11-17T07:42:52.438Z,4.84
2022-11-17T07:45:28.671Z,4.93
2022-11-17T07:48:07.679Z,4.94
2022-11-17T07:50:41.759Z,5.47
2022-11-17T07:53:13.585Z,5.22
2022-11-17T07:55:45.758Z,4.93
2022-11-17T07:58:17.643Z,4.96
2022-11-17T08:00:49.957Z,5.31
2022-11-17T08:03:24.729Z,5.41
2022-11-17T08:05:57.935Z,5.36
2022-11-17T08:08:29.766Z,5.18
2022-11-17T08:11:05.846Z,5.35
2022-11-17T08:13:39.077Z,5.25
2022-11-17T08:16:12.614Z,5.17
2022-11-17T08:18:52.079Z,5.15
2022-11-17T08:21:25.365Z,4.96
2022-11-17T08:24:05.990Z,5.02
2022-11-17T08:26:39.067Z,5.24
2022-11-17T08:29:11.427Z,5.08
2022-11-17T08:31:46.549Z,5.10
2022-11-17T08:34:21.507Z,5.55
2022-11-17T08:36:54.307Z,5.06
2022-11-17T08:39:26.727Z,4.91
2022-11-17T08:41:59.352Z,5.15
2022-11-17T08:44:34.486Z,5.35
2022-11-17T08:47:06.750Z,5.63
2022-11-17T08:49:41.430Z,5.66
2022-11-17T08:52:14.149Z,5.46
2022-11-17T08:54:45.997Z,5.55
2022-11-17T08:57:18.534Z,5.32
2022-11-17T08:59:51.109Z,5.38
2022-11-17T09:02:23.391Z,5.59
2022-11-17T09:04:57.956Z,5.68
2022-11-17T09:07:34.677Z,5.86
2022-11-17T09:10:11.334Z,5.46
2022-11-17T09:12:43.670Z,5.80
2022-11-17T09:15:15.508Z,5.60
2022-11-17T09:17:48.349Z,5.63
2022-11-17T09:20:23.913Z,5.73
2022-11-17T09:22:56.150Z,5.75
2022-11-17T09:25:28.231Z,5.87
2022-11-17T09:28:01.551Z,5.72
2022-11-17T09:30:33.432Z,5.48
2022-11-17T09:33:22.635Z,5.19
2022-11-17T09:36:07.759Z,5.28
2022-11-17T09:38:40.937Z,5.14
2022-11-17T09:41:26.627Z,5.06
2022-11-17T09:44:10.071Z,5.35
2022-11-17T09:46:55.272Z,5.52
2022-11-17T09:49:39.109Z,5.50
2022-11-17T09:52:21.756Z,5.37
2022-11-17T09:54:59.349Z,5.32
2022-11-17T09:57:42.285Z,5.29
2022-11-17T10:00:18.851Z,5.55
2022-11-17T10:02:51.551Z,5.14
2022-11-17T10:05:31.628Z,5.27
2022-11-17T10:08:26.429Z,5.16
2022-11-17T10:11:21.033Z,5.27
2022-11-17T10:13:54.271Z,5.13
2022-11-17T10:16:27.163Z,5.25
2022-11-17T10:19:23.550Z,5.11
2022-11-17T10:22:00.085Z,5.51
2022-11-17T10:24:43.840Z,5.45
2022-11-17T10:27:23.549Z,5.26
2022-11-17T10:30:03.989Z,5.36
2022-11-17T10:32:41.667Z,5.26
2022-11-17T10:35:19.567Z,5.53
2022-11-17T10:37:58.716Z,5.29
2022-11-17T10:40:54.949Z,5.33
2022-11-17T10:43:32.051Z,5.31
2022-11-17T10:46:07.957Z,5.47
2022-11-17T10:48:42.110Z,5.75
2022-11-17T10:51:26.789Z,5.44
2022-11-17T10:54:08.551Z,5.42
2022-11-17T10:56:48.990Z,5.78
2022-11-17T10:59:48.690Z,5.75
2022-11-17T11:02:32.078Z,5.55
2022-11-17T11:05:31.951Z,5.52
2022-11-17T11:08:27.830Z,5.40
2022-11-17T11:11:36.407Z,5.58
2022-11-17T11:14:29.789Z,5.86
2022-11-17T11:17:03.389Z,5.55
2022-11-17T11:19:37.390Z,5.28
2022-11-17T11:22:31.271Z,5.37
2022-11-17T11:25:16.596Z,5.56
2022-11-17T11:27:59.933Z,5.73
2022-11-17T11:30:40.872Z,5.57
2022-11-17T11:33:28.354Z,5.81
2022-11-17T11:36:28.669Z,5.56
2022-11-17T11:39:07.377Z,5.55
2022-11-17T11:42:07.468Z,5.55
2022-11-17T11:44:58.871Z,5.91
2022-11-17T11:47:51.438Z,5.83
2022-11-17T11:50:27.482Z,5.45
2022-11-17T11:53:06.795Z,5.35
2022-11-17T11:55:41.629Z,5.74
2022-11-17T11:58:20.797Z,5.55
2022-11-17T12:00:57.477Z,5.75
2022-11-17T12:03:39.087Z,5.99
2022-11-17T12:06:33.753Z,5.50
2022-11-17T12:09:19.950Z,5.47
2022-11-17T12:12:04.191Z,5.57
2022-11-17T12:14:38.518Z,5.52
2022-11-17T12:17:23.752Z,5.56
2022-11-17T12:20:07.528Z,5.66
2022-11-17T12:23:13.349Z,5.59
2022-11-17T12:25:53.719Z,5.32
2022-11-17T12:28:37.400Z,5.44
2022-11-17T12:31:12.763Z,5.53
2022-11-17T12:34:14.028Z,5.78
2022-11-17T12:37:26.716Z,5.50
2022-11-17T12:40:02.253Z,5.66
2022-11-17T12:42:35.974Z,5.53
2022-11-17T12:45:14.370Z,5.45
2022-11-17T12:48:05.218Z,5.59
2022-11-17T12:51:01.852Z,5.67
2022-11-17T12:53:58.734Z,5.55
2022-11-17T12:57:00.844Z,5.35
2022-11-17T12:59:57.041Z,5.49
2022-11-17T13:02:44.088Z,5.44
2022-11-17T13:05:22.863Z,5.61
2022-11-17T13:08:14.279Z,5.33
2022-11-17T13:10:49.480Z,5.44
2022-11-17T13:13:24.268Z,5.73
2022-11-17T13:15:59.400Z,5.77
2022-11-17T13:18:35.364Z,5.89
2022-11-17T13:21:19.163Z,5.66
2022-11-17T13:23:52.251Z,5.73
2022-11-17T13:26:31.965Z,5.79
2022-11-17T13:29:07.923Z,5.50
2022-11-17T13:31:40.804Z,5.63
2022-11-17T13:34:21.522Z,5.55
2022-11-17T13:36:57.722Z,5.52
2022-11-17T13:39:31.524Z,5.43
2022-11-17T13:42:07.005Z,5.65
2022-11-17T13:44:41.245Z,5.48
2022-11-17T13:47:24.204Z,5.56
2022-11-17T13:49:57.202Z,5.65
2022-11-17T13:52:45.326Z,5.67
2022-11-17T13:55:23.099Z,5.49
2022-11-17T13:58:04.208Z,5.45
2022-11-17T14:00:37.571Z,5.79
2022-11-17T14:03:36.643Z,5.44
2022-11-17T14:06:10.803Z,5.55
2022-11-17T14:08:45.285Z,5.62
2022-11-17T14:11:30.524Z,5.61
2022-11-17T14:14:07.882Z,5.57
2022-11-17T14:16:42.848Z,5.42
2022-11-17T14:19:29.722Z,5.36
2022-11-17T14:22:04.171Z,5.50
2022-11-17T14:24:36.577Z,5.55
2022-11-17T14:27:16.572Z,5.13
2022-11-17T14:29:51.234Z,5.07
2022-11-17T14:32:23.474Z,5.10
2022-11-17T14:34:57.557Z,5.06
2022-11-17T14:37:30.991Z,5.21
2022-11-17T14:40:08.848Z,5.09
2022-11-17T14:42:41.692Z,5.17
2022-11-17T14:45:19.809Z,5.07
2022-11-17T14:47:52.167Z,5.15
2022-11-17T14:50:24.329Z,5.21
2022-11-17T14:52:56.768Z,5.36
2022-11-17T14:55:30.325Z,5.04
2022-11-17T14:58:02.726Z,4.94
2022-11-17T15:00:41.058Z,5.15
2022-11-17T15:03:13.349Z,5.00
2022-11-17T15:05:49.333Z,5.07
2022-11-17T15:08:21.536Z,5.22
2022-11-17T15:10:55.669Z,5.35
2022-11-17T15:13:27.939Z,5.14
2022-11-17T15:16:08.554Z,5.28
2022-11-17T15:18:41.153Z,5.24
2022-11-17T15:21:15.193Z,5.66
2022-11-17T15:23:48.072Z,5.07
2022-11-17T15:26:23.716Z,5.18
2022-11-17T15:28:58.110Z,5.01
2022-11-17T15:31:32.953Z,5.27
2022-11-17T15:34:05.594Z,4.96
2022-11-17T15:36:37.485Z,5.18
2022-11-17T15:39:10.232Z,4.97
2022-11-17T15:41:42.195Z,4.96
2022-11-17T15:44:15.092Z,5.07
2022-11-17T15:46:49.964Z,5.05
2022-11-17T15:49:22.255Z,4.89
2022-11-17T15:51:54.536Z,4.72
2022-11-17T15:54:26.819Z,4.64
2022-11-17T15:57:00.965Z,4.73
2022-11-17T15:59:33.694Z,4.73
2022-11-17T16:02:14.258Z,5.15
2022-11-17T16:04:46.586Z,4.89
2022-11-17T16:07:18.717Z,4.88
2022-11-17T16:09:51.110Z,5.31
2022-11-17T16:12:24.832Z,5.21
2022-11-17T16:14:57.142Z,5.09
2022-11-17T16:17:32.056Z,5.03
2022-11-17T16:20:30.887Z,4.91
2022-11-17T16:23:02.782Z,4.81
2022-11-17T16:25:35.832Z,4.47
2022-11-17T16:28:08.432Z,4.64
2022-11-17T16:30:41.237Z,4.57
2022-11-17T16:33:20.819Z,4.51
2022-11-17T16:35:53.659Z,4.74
2022-11-17T16:38:30.609Z,4.69
2022-11-17T16:41:03.898Z,5.06
2022-11-17T16:43:38.997Z,5.02
2022-11-17T16:46:20.023Z,4.84
2022-11-17T16:48:55.854Z,4.79
2022-11-17T16:51:29.699Z,4.44
2022-11-17T16:54:03.498Z,4.36
2022-11-17T16:56:37.423Z,4.14
2022-11-17T16:59:09.548Z,4.07
2022-11-17T17:01:42.419Z,3.96
2022-11-17T17:04:17.819Z,4.05
2022-11-17T17:06:50.713Z,4.33
2022-11-17T17:09:27.911Z,4.08
2022-11-17T17:12:01.175Z,3.99
2022-11-17T17:14:33.256Z,4.08
2022-11-17T17:17:05.936Z,4.16
2022-11-17T17:19:40.736Z,4.26
2022-11-17T17:22:13.219Z,3.93
2022-11-17T17:24:48.555Z,4.24
2022-11-17T17:27:22.877Z,4.23
2022-11-17T17:30:06.034Z,4.33
2022-11-17T17:32:41.755Z,4.11
2022-11-17T17:35:16.475Z,3.78
2022-11-17T17:37:49.353Z,3.74
2022-11-17T17:40:21.513Z,3.71
2022-11-17T17:42:54.112Z,3.68
2022-11-17T17:45:26.475Z,3.84
2022-11-17T17:47:59.313Z,3.76
2022-11-17T17:51:10.216Z,3.77
2022-11-17T17:53:46.925Z,3.80
2022-11-17T17:56:20.566Z,3.88
2022-11-17T17:58:53.724Z,3.97
2022-11-17T18:01:27.648Z,3.98
2022-11-17T18:04:05.353Z,4.36
2022-11-17T18:06:41.247Z,3.81
2022-11-17T18:09:19.938Z,3.85
2022-11-17T18:11:53.204Z,3.45
2022-11-17T18:14:27.205Z,3.43
2022-11-17T18:16:59.304Z,3.56
2022-11-17T18:19:33.445Z,3.65
2022-11-17T18:22:05.766Z,3.49
2022-11-17T18:24:41.645Z,3.76
2022-11-17T18:27:16.524Z,3.58
2022-11-17T18:29:49.044Z,3.29
2022-11-17T18:32:21.285Z,3.46
2022-11-17T18:34:53.845Z,3.54
2022-11-17T18:37:26.443Z,3.95
2022-11-17T18:40:02.326Z,3.90
2022-11-17T18:42:36.726Z,4.11
2022-11-17T18:45:10.844Z,3.79
2022-11-17T18:47:43.323Z,3.76
2022-11-17T18:50:19.724Z,3.76
2022-11-17T18:52:51.482Z,3.72
2022-11-17T18:55:32.642Z,3.88
2022-11-17T18:58:04.640Z,3.96
2022-11-17T19:00:39.744Z,3.75
2022-11-17T19:03:11.997Z,3.71
2022-11-17T19:05:44.467Z,3.57
2022-11-17T19:08:16.606Z,3.53
2022-11-17T19:11:00.797Z,3.26
2022-11-17T19:13:37.728Z,3.71
2022-11-17T19:16:15.107Z,3.81
2022-11-17T19:18:50.166Z,3.61
2022-11-17T19:21:24.270Z,3.57
2022-11-17T19:23:58.027Z,3.37
2022-11-17T19:26:34.667Z,3.39
2022-11-17T19:29:15.944Z,3.39
2022-11-17T19:31:49.527Z,3.69
2022-11-17T19:34:21.427Z,3.83
2022-11-17T19:36:53.781Z,3.88
2022-11-17T19:39:25.686Z,3.86
2022-11-17T19:45:19.344Z,4.04
2022-11-17T19:47:51.544Z,3.99
2022-11-17T19:50:23.385Z,3.62
2022-11-17T19:52:55.490Z,3.68
2022-11-17T19:55:27.244Z,3.56
2022-11-17T19:58:02.146Z,3.30
2022-11-17T20:00:34.206Z,3.40
2022-11-17T20:03:06.889Z,3.60
2022-11-17T20:05:38.773Z,3.49
2022-11-17T20:08:11.042Z,3.55
2022-11-17T20:10:43.064Z,3.44
2022-11-17T20:13:18.044Z,3.16
2022-11-17T20:15:50.082Z,3.25
2022-11-17T20:18:22.323Z,3.12
2022-11-17T20:21:06.775Z,3.28
2022-11-17T20:23:49.146Z,3.21
2022-11-17T20:26:32.987Z,3.14
2022-11-17T20:29:07.534Z,2.94
2022-11-17T20:31:40.360Z,2.94
2022-11-17T20:34:15.825Z,2.97
2022-11-17T20:36:47.097Z,2.96
2022-11-17T20:39:19.098Z,2.80
2022-11-17T20:41:50.548Z,3.17
2022-11-17T20:44:28.268Z,3.07
2022-11-17T20:46:59.756Z,3.27
2022-11-17T20:49:32.637Z,3.28
2022-11-17T20:52:06.878Z,3.48
2022-11-17T20:54:41.187Z,3.11
2022-11-17T20:57:12.478Z,2.95
2022-11-17T20:59:46.818Z,2.63
2022-11-17T21:02:18.441Z,2.90
2022-11-17T21:04:50.593Z,3.11
2022-11-17T21:07:22.007Z,3.31
2022-11-17T21:09:54.170Z,3.24
2022-11-17T21:12:25.523Z,3.16
2022-11-17T21:14:59.617Z,2.79
2022-11-17T21:17:43.317Z,2.87
2022-11-17T21:20:15.172Z,2.80
2022-11-17T21:22:50.188Z,2.93
2022-11-17T21:25:21.982Z,2.97
2022-11-17T21:27:53.597Z,3.02
2022-11-17T21:30:28.324Z,3.06
2022-11-17T21:33:00.163Z,3.19
2022-11-17T21:35:32.404Z,3.14
2022-11-17T21:38:03.899Z,3.28
2022-11-17T21:40:35.750Z,3.39
2022-11-17T21:43:07.009Z,3.24
2022-11-17T21:45:56.707Z,3.19
2022-11-17T21:48:28.987Z,3.21
2022-11-17T21:51:01.674Z,2.74
2022-11-17T21:53:35.083Z,2.90
2022-11-17T21:56:10.106Z,2.81
2022-11-17T21:58:42.641Z,2.91
2022-11-17T22:01:19.255Z,3.37
2022-11-17T22:03:51.611Z,3.01
2022-11-17T22:06:28.234Z,2.82
2022-11-17T22:09:02.521Z,2.79
2022-11-17T22:11:38.866Z,2.72
2022-11-17T22:14:13.597Z,2.84
2022-11-17T22:16:52.209Z,2.75
2022-11-17T22:19:25.886Z,2.93
2022-11-17T22:21:58.263Z,3.09
2022-11-17T22:24:29.745Z,3.37
2022-11-17T22:30:14.939Z,3.47
2022-11-17T22:32:49.394Z,3.18
2022-11-17T22:35:20.714Z,3.19
2022-11-17T22:37:52.575Z,2.88
2022-11-17T22:40:23.832Z,2.79
2022-11-17T22:42:56.147Z,3.17
2022-11-17T22:45:27.770Z,3.07
2022-11-17T22:48:03.048Z,2.68
2022-11-17T22:50:34.626Z,2.83
2022-11-17T22:53:06.787Z,2.98
2022-11-17T22:55:38.352Z,3.18
2022-11-17T22:58:10.499Z,2.71
2022-11-17T23:00:41.934Z,2.80
2022-11-17T23:03:16.250Z,3.04
2022-11-17T23:05:48.162Z,3.11
2022-11-17T23:08:19.678Z,2.97
2022-11-17T23:11:03.883Z,2.73
2022-11-17T23:13:42.901Z,2.82
2022-11-17T23:16:14.080Z,3.22
2022-11-17T23:18:49.010Z,2.55
2022-11-17T23:21:19.994Z,2.46
2022-11-17T23:23:52.400Z,2.34
2022-11-17T23:26:23.762Z,2.49
2022-11-17T23:28:58.269Z,2.77
2022-11-17T23:31:30.014Z,2.85
2022-11-17T23:34:04.567Z,2.40
2022-11-17T23:36:35.942Z,2.23
2022-11-17T23:39:08.313Z,2.43
2022-11-17T23:41:40.589Z,2.61
2022-11-17T23:44:12.412Z,2.51
2022-11-17T23:46:43.872Z,2.34
2022-11-17T23:49:19.231Z,2.36
2022-11-17T23:51:51.633Z,2.19
2022-11-17T23:54:23.318Z,2.56
2022-11-17T23:56:54.770Z,2.73
2022-11-17T23:59:26.981Z,2.77
